Time;durP1;ratioP1;P1;durP2;ratioP2;P2;SDS_P1;SDS_P2;PMS_P1;PMS_P2;Temp;Humidity;BMP_temperature;BMP_pressure;BME280_temperature;BME280_humidity;BME280_pressure;Samples;Min_cycle;Max_cycle;Signal;HPM_P1;HPM_P2
2023/10/07 00:02:14;;;;;;;;;;;;;;;15.53;84.33;100246.96;106519;1259;64295;-83
2023/10/07 00:04:41;;;;;;;;;;;;;;;15.57;84.21;100240.77;106362;1258;124982;-83
2023/10/07 00:07:11;;;;;;;;;;;;;;;15.59;84.19;100231.91;106253;1265;61257;-83
2023/10/07 00:09:41;;;;;;;;;;;;;;;15.62;84.08;100220.58;106163;1259;125266;-83
2023/10/07 00:12:14;;;;;;;;;;;;;;;15.66;83.95;100210.83;106292;1259;74801;-82
2023/10/07 00:14:41;;;;;;;;;;;;;;;15.69;83.92;100194.19;107236;1261;66315;-82
2023/10/07 00:17:16;;;;;;;;;;;;;;;15.72;83.88;100187.64;106247;1263;125157;-82
2023/10/07 00:19:44;;;;;;;;;;;;;;;15.74;83.73;100189.08;106415;1260;59503;-83
2023/10/07 00:22:13;;;;;;;;;;;;;;;15.78;83.78;100189.95;106296;1263;124977;-83
2023/10/07 00:24:43;;;;;;;;;;;;;;;15.80;83.61;100188.15;106573;1259;74672;-84
2023/10/07 00:27:30;;;;;;;;;;;;;;;15.82;83.50;100184.09;106940;1264;66106;-83
2023/10/07 00:30:02;;;;;;;;;;;;;;;15.83;83.50;100165.51;106199;1261;71520;-82
2023/10/07 00:32:38;;;;;;;;;;;;;;;15.83;83.40;100149.92;106600;1261;61302;-83
2023/10/07 00:35:07;;;;;;;;;;;;;;;15.84;83.21;100139.85;106237;1259;125245;-84
2023/10/07 00:37:34;;;;;;;;;;;;;;;15.83;83.17;100137.55;106256;1260;74686;-84
2023/10/07 00:40:07;;;;;;;;;;;;;;;15.83;83.10;100133.30;106085;1260;125188;-83
2023/10/07 00:42:33;;;;;;;;;;;;;;;15.85;83.08;100129.05;106538;1263;72815;-83
2023/10/07 00:45:02;;;;;;;;;;;;;;;15.86;83.02;100111.52;106280;1263;59701;-84
2023/10/07 00:47:29;;;;;;;;;;;;;;;15.86;82.93;100096.48;106339;1262;126040;-84
2023/10/07 00:49:57;;;;;;;;;;;;;;;15.85;82.79;100100.90;106457;1263;74661;-84
2023/10/07 00:52:32;;;;;;;;;;;;;;;15.84;82.73;100106.59;106215;1265;125082;-84
2023/10/07 00:55:10;;;;;;;;;;;;;;;15.82;82.75;100095.98;106285;1260;72721;-82
2023/10/07 00:57:37;;;;;;;;;;;;;;;15.81;82.65;100098.99;106275;1263;125645;-83
2023/10/07 01:00:56;;;;;;;;;;;;;;;15.82;82.77;100098.10;106431;1263;61163;-83
2023/10/07 01:03:12;;;;;;;;;;;;;;;15.86;82.78;100086.94;106250;1260;73487;-84
2023/10/07 01:05:44;;;;;;;;;;;;;;;15.90;82.78;100083.36;106153;1262;124774;-83
2023/10/07 01:08:12;;;;;;;;;;;;;;;15.92;82.72;100088.47;106392;1260;72710;-83
2023/10/07 01:10:46;;;;;;;;;;;;;;;15.97;82.72;100092.33;106240;1259;125415;-82
2023/10/07 01:13:29;;;;;;;;;;;;;;;15.99;82.74;100085.94;106385;1263;61366;-84
2023/10/07 01:15:55;;;;;;;;;;;;;;;16.01;82.72;100079.55;106299;1259;126220;-83
2023/10/07 01:18:22;;;;;;;;;;;;;;;16.04;82.73;100077.59;106222;1260;66210;-84
2023/10/07 01:23:23;;;;;;;;;;;;;;;16.08;82.56;100079.14;106383;1263;125353;-83
2023/10/07 01:25:50;;;;;;;;;;;;;;;16.12;82.60;100071.69;106338;1260;61371;-83
2023/10/07 01:28:17;;;;;;;;;;;;;;;16.16;82.49;100073.23;106270;1263;125164;-83
2023/10/07 01:33:39;;;;;;;;;;;;;;;16.22;82.28;100068.05;106340;1263;125677;-83
2023/10/07 01:36:24;;;;;;;;;;;;;;;16.24;82.26;100067.31;106458;1261;59590;-84
2023/10/07 01:38:54;;;;;;;;;;;;;;;16.26;82.20;100063.77;106464;1263;60685;-84
2023/10/07 01:41:27;;;;;;;;;;;;;;;16.28;82.12;100060.55;106442;1261;123955;-85
2023/10/07 01:44:00;;;;;;;;;;;;;;;16.30;82.04;100063.55;106329;1266;66174;-84
2023/10/07 01:46:28;;;;;;;;;;;;;;;16.32;81.87;100054.14;106095;1261;124923;-83
2023/10/07 01:48:55;;;;;;;;;;;;;;;16.34;81.76;100038.37;106353;1265;61314;-84
2023/10/07 01:51:23;;;;;;;;;;;;;;;16.34;81.58;100026.68;106327;1263;125507;-85
2023/10/07 01:53:49;;;;;;;;;;;;;;;16.37;81.40;100012.84;106464;1263;74437;-85
2023/10/07 01:56:16;;;;;;;;;;;;;;;16.37;81.29;99992.83;106386;1259;65896;-89
2023/10/07 01:58:43;;;;;;;;;;;;;;;16.38;81.19;99989.81;106375;1264;125241;-87
2023/10/07 02:01:10;;;;;;;;;;;;;;;16.37;81.08;99974.95;106306;1259;61273;-85
2023/10/07 02:03:36;;;;;;;;;;;;;;;16.37;80.96;99974.24;106311;1263;125138;-88
2023/10/07 02:06:05;;;;;;;;;;;;;;;16.36;80.89;99971.23;106366;1261;74647;-84
2023/10/07 02:08:32;;;;;;;;;;;;;;;16.37;80.86;99970.17;106426;1260;66317;-83
2023/10/07 02:10:59;;;;;;;;;;;;;;;16.37;80.85;99967.15;106376;1260;125053;-84
2023/10/07 02:13:27;;;;;;;;;;;;;;;16.38;80.82;99967.67;106421;1260;61391;-83
2023/10/07 02:15:57;;;;;;;;;;;;;;;16.41;80.79;99951.89;106312;1260;125128;-84
2023/10/07 02:18:27;;;;;;;;;;;;;;;16.42;80.66;99939.66;106368;1263;73226;-84
2023/10/07 02:21:06;;;;;;;;;;;;;;;16.42;80.47;99941.44;106527;1260;66297;-83
2023/10/07 02:23:46;;;;;;;;;;;;;;;16.42;80.43;99943.92;106092;1261;124841;-82
2023/10/07 02:26:19;;;;;;;;;;;;;;;16.42;80.23;99937.36;106357;1260;59219;-82
2023/10/07 02:28:52;;;;;;;;;;;;;;;16.43;80.09;99950.46;106226;1263;124954;-83
2023/10/07 02:31:21;;;;;;;;;;;;;;;16.42;79.95;99954.71;106440;1260;74852;-82
2023/10/07 02:33:51;;;;;;;;;;;;;;;16.43;79.94;99966.02;106373;1261;125058;-83
2023/10/07 02:36:38;;;;;;;;;;;;;;;16.43;79.77;99964.79;106402;1264;72877;-84
2023/10/07 02:39:18;;;;;;;;;;;;;;;16.43;79.69;99959.48;106312;1263;61148;-84
2023/10/07 02:41:48;;;;;;;;;;;;;;;16.47;79.63;99970.41;106501;1261;61177;-84
2023/10/07 02:44:26;;;;;;;;;;;;;;;16.53;79.42;99974.05;106216;1261;73845;-83
2023/10/07 02:46:52;;;;;;;;;;;;;;;16.59;79.32;99966.73;106228;1260;125004;-83
2023/10/07 02:49:22;;;;;;;;;;;;;;;16.63;79.19;99968.98;106299;1264;71866;-83
2023/10/07 02:52:16;;;;;;;;;;;;;;;16.67;79.16;99962.37;106135;1260;126072;-83
2023/10/07 02:54:41;;;;;;;;;;;;;;;16.70;79.02;99955.95;106318;1271;62044;-84
2023/10/07 02:57:08;;;;;;;;;;;;;;;16.74;78.90;99959.63;106375;1260;75281;-83
2023/10/07 02:59:50;;;;;;;;;;;;;;;16.77;78.74;99957.27;106238;1269;125320;-83
2023/10/07 03:04:44;;;;;;;;;;;;;;;16.82;78.59;99945.73;106311;1258;125442;-83
2023/10/07 03:07:14;;;;;;;;;;;;;;;16.85;78.40;99962.70;106193;1260;61218;-83
2023/10/07 03:09:52;;;;;;;;;;;;;;;16.87;78.23;99959.33;106034;1259;125144;-83
2023/10/07 03:12:27;;;;;;;;;;;;;;;16.89;78.15;99945.98;106445;1259;64840;-84
2023/10/07 03:14:57;;;;;;;;;;;;;;;16.92;77.87;99948.27;106389;1260;71442;-84
2023/10/07 03:17:34;;;;;;;;;;;;;;;16.95;77.64;99941.50;106167;1258;125699;-83
2023/10/07 03:28:17;;;;;;;;;;;;;;;17.00;76.94;99951.34;106294;1262;124782;-83
2023/10/07 03:30:51;;;;;;;;;;;;;;;17.00;76.79;99942.66;106393;1259;61218;-82
2023/10/07 03:33:24;;;;;;;;;;;;;;;17.01;76.68;99944.40;106366;1263;61298;-83
2023/10/07 03:38:26;;;;;;;;;;;;;;;17.03;76.40;99943.67;106420;1262;66274;-83
2023/10/07 03:40:56;;;;;;;;;;;;;;;17.03;76.15;99946.87;106342;1263;124795;-83
2023/10/07 03:43:25;;;;;;;;;;;;;;;17.03;76.06;99950.58;106458;1260;61369;-85
2023/10/07 03:45:53;;;;;;;;;;;;;;;17.05;75.92;99961.20;106335;1263;125206;-83
2023/10/07 03:48:31;;;;;;;;;;;;;;;17.06;75.65;99954.62;106357;1261;76428;-82
2023/10/07 03:51:08;;;;;;;;;;;;;;;17.06;75.57;99961.35;106381;1260;66849;-83
2023/10/07 03:53:47;;;;;;;;;;;;;;;17.06;75.22;99963.48;106269;1260;124082;-83
2023/10/07 03:56:14;;;;;;;;;;;;;;;17.06;75.08;99959.23;106396;1261;61163;-83
2023/10/07 03:58:43;;;;;;;;;;;;;;;17.04;74.71;99959.09;106299;1260;125389;-83
2023/10/07 04:01:22;;;;;;;;;;;;;;;17.02;74.56;99953.95;106365;1263;73563;-83
2023/10/07 04:03:50;;;;;;;;;;;;;;;17.02;74.27;99958.04;106346;1263;125111;-83
2023/10/07 04:06:17;;;;;;;;;;;;;;;17.03;74.22;99963.70;106664;1259;72814;-83
2023/10/07 04:08:45;;;;;;;;;;;;;;;17.03;74.06;99960.33;106310;1260;61347;-83
2023/10/07 04:11:13;;;;;;;;;;;;;;;17.04;73.99;99958.38;106298;1261;125236;-83
2023/10/07 04:13:40;;;;;;;;;;;;;;;17.04;73.75;99964.94;106310;1259;74317;-85
2023/10/07 04:16:22;;;;;;;;;;;;;;;17.03;73.43;99965.82;106150;1259;124705;-85
2023/10/07 04:18:50;;;;;;;;;;;;;;;17.03;73.23;99967.25;106270;1259;72707;-84
2023/10/07 04:21:16;;;;;;;;;;;;;;;17.05;72.84;99966.88;106333;1259;61227;-83
2023/10/07 04:23:44;;;;;;;;;;;;;;;17.06;72.63;99970.05;106256;1265;124551;-83
2023/10/07 04:26:12;;;;;;;;;;;;;;;17.05;72.47;99963.50;106411;1260;74721;-83
2023/10/07 04:28:39;;;;;;;;;;;;;;;17.03;72.09;99974.33;106174;1261;124443;-82
2023/10/07 04:31:12;;;;;;;;;;;;;;;17.02;71.88;99975.39;106406;1259;72703;-84
2023/10/07 04:33:47;;;;;;;;;;;;;;;17.02;71.55;99988.88;106315;1258;125077;-84
2023/10/07 04:36:14;;;;;;;;;;;;;;;17.01;71.35;99988.90;106413;1262;61244;-84
2023/10/07 04:38:54;;;;;;;;;;;;;;;17.00;71.05;99986.42;106393;1259;74909;-83
2023/10/07 04:43:50;;;;;;;;;;;;;;;16.98;70.52;99999.58;106416;1263;72383;-84
2023/10/07 04:46:29;;;;;;;;;;;;;;;16.97;70.39;100007.20;106277;1261;124872;-83
2023/10/07 04:48:56;;;;;;;;;;;;;;;16.94;70.20;100010.80;106513;1259;61286;-83
2023/10/07 04:53:58;;;;;;;;;;;;;;;16.89;69.77;100022.20;105904;1263;65250;-83
2023/10/07 04:56:25;;;;;;;;;;;;;;;16.85;69.37;100028.09;106241;1262;72458;-83
2023/10/07 04:58:55;;;;;;;;;;;;;;;16.82;69.27;100031.66;105891;1259;124999;-83
2023/10/07 05:01:31;;;;;;;;;;;;;;;16.80;69.00;100042.48;106045;1262;61214;-84
2023/10/07 05:03:58;;;;;;;;;;;;;;;16.77;68.61;100046.77;106148;1261;124822;-81
2023/10/07 05:06:25;;;;;;;;;;;;;;;16.75;68.55;100046.25;106120;1259;66277;-82
2023/10/07 05:08:52;;;;;;;;;;;;;;;16.72;68.22;100045.58;106373;1259;72678;-82
2023/10/07 05:11:19;;;;;;;;;;;;;;;16.69;68.10;100050.21;106211;1259;124296;-82
2023/10/07 05:13:46;;;;;;;;;;;;;;;16.66;68.07;100052.38;106428;1260;61231;-82
2023/10/07 05:16:13;;;;;;;;;;;;;;;16.62;68.04;100044.09;106277;1262;124863;-82
2023/10/07 05:18:40;;;;;;;;;;;;;;;16.58;67.97;100040.95;106453;1259;65053;-81
2023/10/07 05:21:07;;;;;;;;;;;;;;;16.53;67.73;100042.07;106352;1259;72720;-82
2023/10/07 05:23:34;;;;;;;;;;;;;;;16.49;67.79;100049.55;106438;1262;125082;-82
2023/10/07 05:26:08;;;;;;;;;;;;;;;16.45;67.88;100057.20;106370;1259;61295;-89
2023/10/07 05:28:35;;;;;;;;;;;;;;;16.40;67.87;100059.91;106369;1258;124242;-86
2023/10/07 05:31:05;;;;;;;;;;;;;;;16.36;67.93;100069.51;106662;1260;66025;-89
2023/10/07 05:33:35;;;;;;;;;;;;;;;16.30;67.85;100066.91;106245;1261;124415;-88
2023/10/07 05:36:16;;;;;;;;;;;;;;;16.26;67.74;100078.80;106460;1259;61362;-88
2023/10/07 05:38:53;;;;;;;;;;;;;;;16.22;67.62;100093.90;106481;1260;59879;-88
2023/10/07 05:41:25;;;;;;;;;;;;;;;16.18;67.47;100106.48;106254;1260;125442;-82
2023/10/07 05:43:51;;;;;;;;;;;;;;;16.15;67.24;100112.02;106353;1259;66284;-82
2023/10/07 05:46:19;;;;;;;;;;;;;;;16.11;67.04;100113.63;106419;1261;124214;-85
2023/10/07 05:48:48;;;;;;;;;;;;;;;16.07;66.94;100102.68;106501;1259;61330;-83
2023/10/07 05:51:21;;;;;;;;;;;;;;;16.04;67.00;100109.44;106253;1262;125075;-83
2023/10/07 05:53:48;;;;;;;;;;;;;;;16.02;66.98;100121.67;106345;1260;74720;-82
2023/10/07 05:56:15;;;;;;;;;;;;;;;16.01;67.07;100115.30;106387;1260;66609;-83
2023/10/07 05:58:44;;;;;;;;;;;;;;;15.99;67.04;100127.36;106412;1263;124264;-82
2023/10/07 06:01:18;;;;;;;;;;;;;;;15.97;66.93;100128.60;106479;1260;61775;-83
2023/10/07 06:03:46;;;;;;;;;;;;;;;15.95;66.87;100131.63;106234;1259;124930;-83
2023/10/07 06:06:14;;;;;;;;;;;;;;;15.93;66.74;100132.00;106175;1261;74106;-82
2023/10/07 06:08:41;;;;;;;;;;;;;;;15.90;66.70;100140.68;106369;1259;65137;-82
2023/10/07 06:11:10;;;;;;;;;;;;;;;15.85;66.50;100149.92;106328;1260;125109;-82
2023/10/07 06:13:40;;;;;;;;;;;;;;;15.80;66.62;100151.18;106329;1259;59414;-82
2023/10/07 06:16:09;;;;;;;;;;;;;;;15.77;66.71;100153.86;106250;1260;125374;-83
2023/10/07 06:18:37;;;;;;;;;;;;;;;15.69;66.59;100166.08;106423;1260;74643;-82
2023/10/07 06:22:11;;;;;;;;;;;;;;;15.60;66.73;100171.07;106168;1260;66304;-82
2023/10/07 06:24:04;;;;;;;;;;;;;;;15.50;67.06;100168.11;106122;1261;73286;-83
2023/10/07 06:26:31;;;;;;;;;;;;;;;15.48;67.22;100190.39;106152;1265;61231;-83
2023/10/07 06:29:05;;;;;;;;;;;;;;;15.47;67.33;100188.98;106120;1264;124802;-83
2023/10/07 06:31:36;;;;;;;;;;;;;;;15.44;67.40;100185.64;106282;1260;73357;-83
2023/10/07 06:34:14;;;;;;;;;;;;;;;15.45;67.56;100187.23;106253;1263;125633;-83
2023/10/07 06:36:41;;;;;;;;;;;;;;;15.48;67.69;100179.45;106123;1260;72871;-83
2023/10/07 06:39:07;;;;;;;;;;;;;;;15.51;67.53;100182.42;106399;1260;61339;-82
2023/10/07 06:41:34;;;;;;;;;;;;;;;15.57;67.38;100188.59;106280;1260;124870;-83
2023/10/07 06:44:04;;;;;;;;;;;;;;;15.66;67.30;100183.43;106267;1260;74709;-86
2023/10/07 06:46:40;;;;;;;;;;;;;;;15.74;66.90;100186.77;106261;1260;123325;-84
2023/10/07 06:49:18;;;;;;;;;;;;;;;15.79;66.86;100185.33;106275;1265;71430;-84
2023/10/07 06:51:45;;;;;;;;;;;;;;;15.84;66.75;100183.19;106230;1259;124567;-84
2023/10/07 06:54:14;;;;;;;;;;;;;;;15.87;66.68;100188.48;106414;1259;61343;-84
2023/10/07 06:56:40;;;;;;;;;;;;;;;15.87;66.69;100196.44;106276;1260;73812;-84
2023/10/07 06:59:08;;;;;;;;;;;;;;;15.87;66.42;100203.52;106231;1264;124410;-84
2023/10/07 07:01:35;;;;;;;;;;;;;;;15.88;66.45;100208.98;107674;1260;72693;-83
2023/10/07 07:04:09;;;;;;;;;;;;;;;15.89;66.37;100210.23;106238;1263;124631;-84
2023/10/07 07:06:43;;;;;;;;;;;;;;;15.92;66.16;100211.98;106321;1259;61282;-83
2023/10/07 07:09:41;;;;;;;;;;;;;;;15.96;66.03;100216.20;106575;1259;72145;-83
2023/10/07 07:11:59;;;;;;;;;;;;;;;16.03;66.00;100230.15;106412;1261;64574;-84
2023/10/07 07:14:28;;;;;;;;;;;;;;;16.07;65.62;100237.55;106351;1258;73293;-83
2023/10/07 07:16:56;;;;;;;;;;;;;;;16.03;65.51;100241.47;106351;1264;124624;-82
2023/10/07 07:19:25;;;;;;;;;;;;;;;15.99;65.45;100238.67;106391;1259;61333;-84
2023/10/07 07:21:52;;;;;;;;;;;;;;;15.94;65.35;100243.64;106364;1259;124385;-82
2023/10/07 07:24:22;;;;;;;;;;;;;;;15.90;65.28;100255.52;106238;1265;64933;-82
2023/10/07 07:26:52;;;;;;;;;;;;;;;15.92;65.39;100264.35;106172;1260;72679;-82
2023/10/07 07:29:22;;;;;;;;;;;;;;;16.03;65.49;100265.89;106377;1260;124252;-82
2023/10/07 07:31:50;;;;;;;;;;;;;;;16.19;65.39;100267.05;106332;1259;61122;-82
2023/10/07 07:34:24;;;;;;;;;;;;;;;16.33;65.04;100269.45;106289;1261;124274;-81
2023/10/07 07:37:03;;;;;;;;;;;;;;;16.47;64.77;100282.10;106356;1260;64596;-81
2023/10/07 07:39:32;;;;;;;;;;;;;;;16.63;64.72;100279.86;106266;1264;125506;-80
2023/10/07 07:42:15;;;;;;;;;;;;;;;16.78;64.44;100285.60;106445;1260;61327;-80
2023/10/07 07:44:56;;;;;;;;;;;;;;;16.85;63.95;100290.36;106348;1259;61256;-81
2023/10/07 07:47:23;;;;;;;;;;;;;;;16.80;63.39;100296.58;106348;1263;124210;-81
2023/10/07 07:49:51;;;;;;;;;;;;;;;16.80;63.46;100297.45;106379;1260;64882;-81
2023/10/07 07:52:19;;;;;;;;;;;;;;;16.84;63.51;100303.66;106170;1260;124873;-82
2023/10/07 07:54:46;;;;;;;;;;;;;;;16.85;63.61;100296.56;106294;1263;61129;-81
2023/10/07 07:57:16;;;;;;;;;;;;;;;16.86;63.31;100301.33;106358;1259;61298;-82
2023/10/07 07:59:43;;;;;;;;;;;;;;;16.83;63.28;100298.88;106347;1262;124503;-82
2023/10/07 08:02:13;;;;;;;;;;;;;;;16.83;63.19;100310.92;106240;1265;65784;-82
2023/10/07 08:04:46;;;;;;;;;;;;;;;16.81;62.97;100317.66;106182;1260;124215;-82
2023/10/07 08:09:45;;;;;;;;;;;;;;;16.81;63.02;100340.86;106259;1263;124874;-83
2023/10/07 08:12:18;;;;;;;;;;;;;;;16.81;62.95;100345.99;106376;1259;73439;-83
2023/10/07 08:14:50;;;;;;;;;;;;;;;16.82;62.88;100343.19;106422;1259;66300;-81
2023/10/07 08:17:19;;;;;;;;;;;;;;;16.79;62.68;100345.84;106485;1259;123219;-81
2023/10/07 08:19:50;;;;;;;;;;;;;;;16.80;62.65;100351.51;106372;1260;61369;-82
2023/10/07 08:22:20;;;;;;;;;;;;;;;16.87;62.47;100360.52;106257;1259;124227;-82
2023/10/07 08:24:47;;;;;;;;;;;;;;;16.92;62.57;100363.14;106472;1262;73203;-82
2023/10/07 08:30:06;;;;;;;;;;;;;;;16.96;62.38;100370.73;106360;1259;71705;-82
2023/10/07 08:32:37;;;;;;;;;;;;;;;16.94;62.41;100371.10;106366;1259;61298;-81
2023/10/07 08:35:17;;;;;;;;;;;;;;;16.92;62.17;100375.91;106608;1259;125337;-82
2023/10/07 08:37:46;;;;;;;;;;;;;;;16.88;61.83;100377.70;106583;1259;75324;-81
2023/10/07 08:40:25;;;;;;;;;;;;;;;16.84;61.71;100383.76;106278;1259;124814;-81
2023/10/07 08:42:56;;;;;;;;;;;;;;;16.81;61.66;100386.60;106467;1259;71599;-82
2023/10/07 08:45:25;;;;;;;;;;;;;;;16.77;61.67;100387.85;106590;1259;61363;-81
2023/10/07 08:47:52;;;;;;;;;;;;;;;16.79;61.58;100402.20;106378;1259;124265;-81
2023/10/07 08:50:22;;;;;;;;;;;;;;;16.78;61.27;100408.93;106477;1260;73328;-80
2023/10/07 08:53:01;;;;;;;;;;;;;;;16.74;61.21;100402.75;106249;1259;124372;-81
2023/10/07 08:55:30;;;;;;;;;;;;;;;16.74;61.32;100411.08;106248;1263;72800;-81
2023/10/07 08:57:57;;;;;;;;;;;;;;;16.69;61.26;100420.32;106105;1259;124508;-81
2023/10/07 09:00:29;;;;;;;;;;;;;;;16.61;61.14;100424.96;106298;1260;61368;-81
2023/10/07 09:02:56;;;;;;;;;;;;;;;16.57;61.32;100437.91;106266;1259;73222;-81
2023/10/07 09:05:24;;;;;;;;;;;;;;;16.62;61.49;100443.39;106248;1259;124526;-82
2023/10/07 09:07:51;;;;;;;;;;;;;;;16.67;61.46;100444.95;106295;1260;71833;-81
2023/10/07 09:10:19;;;;;;;;;;;;;;;16.68;61.47;100456.10;106289;1259;124786;-83
2023/10/07 09:12:49;;;;;;;;;;;;;;;16.70;61.63;100454.51;106338;1266;61276;-82
2023/10/07 09:15:29;;;;;;;;;;;;;;;16.71;61.60;100451.13;106371;1259;76010;-81
2023/10/07 09:18:03;;;;;;;;;;;;;;;16.66;60.94;100465.86;106044;1259;194337;-82
2023/10/07 09:20:31;;;;;;;;;;;;;;;16.50;60.71;100466.11;106385;1260;71151;-82
2023/10/07 09:22:57;;;;;;;;;;;;;;;16.30;60.26;100491.49;106245;1259;124643;-82
2023/10/07 09:25:33;;;;;;;;;;;;;;;16.03;59.85;100496.50;106277;1259;59448;-82
2023/10/07 09:28:01;;;;;;;;;;;;;;;15.80;60.21;100502.71;106233;1259;123626;-81
2023/10/07 09:33:14;;;;;;;;;;;;;;;15.49;60.16;100522.31;106306;1260;73298;-81
2023/10/07 09:35:43;;;;;;;;;;;;;;;15.40;60.12;100533.97;106273;1259;125093;-81
2023/10/07 09:38:33;;;;;;;;;;;;;;;15.31;59.87;100535.38;106465;1263;61289;-82
2023/10/07 09:41:12;;;;;;;;;;;;;;;15.26;58.73;100540.84;106062;1259;124777;-81
2023/10/07 09:43:44;;;;;;;;;;;;;;;15.22;58.66;100548.78;106321;1265;66288;-81
2023/10/07 09:46:11;;;;;;;;;;;;;;;15.21;58.86;100557.27;106306;1262;124676;-82
2023/10/07 09:48:41;;;;;;;;;;;;;;;15.17;58.70;100550.73;106363;1260;61355;-82
2023/10/07 09:51:22;;;;;;;;;;;;;;;15.12;58.34;100562.17;106308;1259;61340;-81
2023/10/07 09:53:52;;;;;;;;;;;;;;;15.01;58.11;100569.39;106228;1259;124477;-81
2023/10/07 09:56:43;;;;;;;;;;;;;;;14.92;57.91;100582.24;106421;1259;65092;-82
2023/10/07 09:59:26;;;;;;;;;;;;;;;14.83;57.90;100592.27;106177;1265;124481;-84
2023/10/07 10:02:05;;;;;;;;;;;;;;;14.81;57.72;100594.02;106284;1261;59549;-82
2023/10/07 10:04:36;;;;;;;;;;;;;;;14.86;57.68;100601.48;106235;1259;125114;-82
2023/10/07 10:07:10;;;;;;;;;;;;;;;14.89;57.39;100606.60;106393;1263;75221;-82
2023/10/07 10:10:04;;;;;;;;;;;;;;;14.93;57.03;100609.64;106832;1261;124553;-82
2023/10/07 10:12:48;;;;;;;;;;;;;;;14.99;56.05;100621.85;106232;1259;73404;-82
2023/10/07 10:17:53;;;;;;;;;;;;;;;15.04;55.03;100615.35;106171;1260;124159;-82
2023/10/07 10:20:27;;;;;;;;;;;;;;;15.07;54.94;100605.46;106140;1260;73341;-82
2023/10/07 10:22:57;;;;;;;;;;;;;;;15.14;54.32;100613.09;106237;1262;124307;-82
2023/10/07 10:25:36;;;;;;;;;;;;;;;15.17;54.06;100611.52;106143;1260;70700;-82
2023/10/07 10:28:03;;;;;;;;;;;;;;;15.15;54.08;100601.59;106358;1264;124656;-81
2023/10/07 10:30:30;;;;;;;;;;;;;;;15.13;54.22;100603.91;106686;1259;61266;-87
2023/10/07 10:32:58;;;;;;;;;;;;;;;15.12;54.12;100608.33;106521;1259;74407;-82
2023/10/07 10:35:25;;;;;;;;;;;;;;;15.09;53.83;100618.02;106836;1259;124372;-86
2023/10/07 10:37:55;;;;;;;;;;;;;;;15.07;53.79;100626.15;106798;1259;71497;-81
2023/10/07 10:40:22;;;;;;;;;;;;;;;15.07;52.57;100632.33;106703;1259;124947;-80
2023/10/07 10:42:52;;;;;;;;;;;;;;;15.10;52.62;100639.23;106676;1262;61262;-81
2023/10/07 10:45:19;;;;;;;;;;;;;;;15.14;52.19;100644.20;106797;1260;73725;-84
2023/10/07 10:47:47;;;;;;;;;;;;;;;15.19;51.86;100642.45;106783;1259;124358;-80
2023/10/07 10:50:16;;;;;;;;;;;;;;;15.23;51.13;100642.83;106884;1260;72670;-82
2023/10/07 10:52:48;;;;;;;;;;;;;;;15.24;51.04;100632.92;107385;1259;124254;-81
2023/10/07 10:55:15;;;;;;;;;;;;;;;15.27;51.14;100638.77;106926;1259;61179;-80
2023/10/07 10:57:42;;;;;;;;;;;;;;;15.29;50.81;100653.10;106822;1259;124484;-80
2023/10/07 11:00:19;;;;;;;;;;;;;;;15.27;49.66;100664.59;106685;1259;65630;-80
2023/10/07 11:02:46;;;;;;;;;;;;;;;15.24;49.85;100652.38;106557;1259;72698;-81
2023/10/07 11:05:13;;;;;;;;;;;;;;;15.24;49.64;100650.60;106590;1259;124964;-82
2023/10/07 11:07:40;;;;;;;;;;;;;;;15.23;49.00;100661.04;106666;1259;61171;-82
2023/10/07 11:10:08;;;;;;;;;;;;;;;15.26;49.32;100661.05;106837;1259;124490;-82
2023/10/07 11:12:36;;;;;;;;;;;;;;;15.31;49.03;100664.95;108851;1259;66208;-83
2023/10/07 11:15:06;;;;;;;;;;;;;;;15.34;48.95;100672.22;108856;1259;72750;-83
2023/10/07 11:17:33;;;;;;;;;;;;;;;15.34;48.72;100681.77;108660;1259;124491;-83
2023/10/07 11:20:01;;;;;;;;;;;;;;;15.28;48.05;100690.75;108366;1263;59851;-82
2023/10/07 11:22:30;;;;;;;;;;;;;;;15.20;48.08;100676.73;106493;1262;124444;-83
2023/10/07 11:24:56;;;;;;;;;;;;;;;15.14;47.80;100691.39;106835;1259;65326;-82
2023/10/07 11:27:23;;;;;;;;;;;;;;;15.04;46.87;100686.56;106615;1259;71492;-82
2023/10/07 11:29:57;;;;;;;;;;;;;;;14.88;46.58;100695.48;106503;1259;124539;-87
2023/10/07 11:32:28;;;;;;;;;;;;;;;14.72;46.62;100695.38;106512;1259;61308;-87
2023/10/07 11:34:57;;;;;;;;;;;;;;;14.61;46.71;100691.59;106475;1260;124659;-87
2023/10/07 11:37:26;;;;;;;;;;;;;;;14.52;47.33;100687.60;106577;1260;65979;-87
2023/10/07 11:39:53;;;;;;;;;;;;;;;14.49;47.89;100698.34;106444;1259;124581;-88
2023/10/07 11:42:21;;;;;;;;;;;;;;;14.48;48.23;100692.16;106551;1263;61298;-87
2023/10/07 11:44:53;;;;;;;;;;;;;;;14.52;48.77;100700.30;106316;1264;61183;-86
2023/10/07 11:47:19;;;;;;;;;;;;;;;14.62;48.93;100700.77;106294;1260;125430;-87
2023/10/07 11:49:46;;;;;;;;;;;;;;;14.70;48.44;100698.54;106404;1259;66005;-89
2023/10/07 11:52:14;;;;;;;;;;;;;;;14.74;47.69;100696.46;106323;1259;124503;-83
2023/10/07 11:54:42;;;;;;;;;;;;;;;14.76;47.50;100701.76;106407;1260;61268;-83
2023/10/07 11:57:10;;;;;;;;;;;;;;;14.81;47.26;100705.34;106734;1259;61420;-84
2023/10/07 11:59:41;;;;;;;;;;;;;;;14.86;47.57;100697.76;106402;1259;124699;-85
2023/10/07 12:02:11;;;;;;;;;;;;;;;14.98;47.57;100712.50;106676;1259;66354;-85
2023/10/07 12:04:38;;;;;;;;;;;;;;;15.12;47.09;100712.41;106766;1259;124380;-85
2023/10/07 12:07:06;;;;;;;;;;;;;;;15.33;46.34;100714.10;106787;1260;61277;-84
2023/10/07 12:09:34;;;;;;;;;;;;;;;15.50;46.17;100706.58;106515;1259;124593;-84
2023/10/07 12:12:02;;;;;;;;;;;;;;;15.66;45.97;100709.47;107335;1259;74552;-85
2023/10/07 12:14:29;;;;;;;;;;;;;;;15.74;45.26;100713.25;108889;1259;65676;-85
2023/10/07 12:16:56;;;;;;;;;;;;;;;15.71;45.19;100715.69;108213;1259;124898;-85
2023/10/07 12:19:25;;;;;;;;;;;;;;;15.63;45.21;100714.77;106619;1259;61262;-84
2023/10/07 12:21:52;;;;;;;;;;;;;;;15.55;45.10;100705.73;106658;1259;125068;-84
2023/10/07 12:24:20;;;;;;;;;;;;;;;15.46;44.88;100704.63;106994;1262;74663;-85
2023/10/07 12:26:47;;;;;;;;;;;;;;;15.37;44.86;100700.70;106888;1259;64947;-83
2023/10/07 12:29:13;;;;;;;;;;;;;;;15.27;44.75;100699.58;106770;1260;124904;-83
2023/10/07 12:31:40;;;;;;;;;;;;;;;15.18;44.62;100698.13;106643;1259;61678;-85
2023/10/07 12:34:09;;;;;;;;;;;;;;;15.10;44.48;100698.62;106278;1260;124725;-85
2023/10/07 12:36:38;;;;;;;;;;;;;;;15.05;44.50;100698.94;106417;1258;73661;-84
2023/10/07 12:39:10;;;;;;;;;;;;;;;15.02;44.41;100702.98;106384;1257;65656;-85
2023/10/07 12:41:37;;;;;;;;;;;;;;;15.01;43.98;100701.92;106325;1259;124366;-83
2023/10/07 12:44:08;;;;;;;;;;;;;;;15.03;43.53;100709.17;106388;1258;61285;-84
2023/10/07 12:46:38;;;;;;;;;;;;;;;15.05;43.13;100718.20;106235;1259;124353;-84
2023/10/07 12:49:13;;;;;;;;;;;;;;;15.08;42.75;100716.63;106430;1259;74728;-84
2023/10/07 12:51:41;;;;;;;;;;;;;;;15.12;42.82;100709.75;106343;1259;124945;-84
2023/10/07 12:54:09;;;;;;;;;;;;;;;15.17;42.34;100715.80;106383;1260;73433;-84
2023/10/07 12:56:39;;;;;;;;;;;;;;;15.20;42.58;100714.76;106280;1260;61355;-84
2023/10/07 12:59:18;;;;;;;;;;;;;;;15.22;42.69;100715.48;106346;1259;124710;-84
2023/10/07 13:01:47;;;;;;;;;;;;;;;15.25;42.72;100716.56;106475;1259;73589;-83
2023/10/07 13:04:14;;;;;;;;;;;;;;;15.30;42.80;100719.22;106360;1259;125079;-85
2023/10/07 13:06:43;;;;;;;;;;;;;;;15.40;43.09;100719.63;106393;1262;71298;-84
2023/10/07 13:09:16;;;;;;;;;;;;;;;15.49;43.05;100728.69;106598;1259;59863;-84
2023/10/07 13:11:44;;;;;;;;;;;;;;;15.50;42.33;100731.35;106326;1264;124808;-83
2023/10/07 13:14:11;;;;;;;;;;;;;;;15.48;42.39;100731.51;106559;1259;75159;-84
2023/10/07 13:16:39;;;;;;;;;;;;;;;15.50;41.99;100738.08;106783;1260;124259;-84
2023/10/07 13:19:06;;;;;;;;;;;;;;;15.52;42.32;100734.00;106443;1260;73239;-84